Time;durP1;ratioP1;P1;durP2;ratioP2;P2;SDS_P1;SDS_P2;PMS_P1;PMS_P2;Temp;Humidity;BMP_temperature;BMP_pressure;BME280_temperature;BME280_humidity;BME280_pressure;Samples;Min_cycle;Max_cycle;Signal;HPM_P1;HPM_P2
2023/01/16 00:01:17;;;;;;;12.60;2.47;;;14.10;87.00;;;;;;6306618;22;20066;-77
2023/01/16 00:03:43;;;;;;;6.72;2.30;;;14.10;87.20;;;;;;6306253;22;20319;-77
2023/01/16 00:06:09;;;;;;;9.48;2.55;;;14.10;87.00;;;;;;6306739;22;20002;-77
2023/01/16 00:08:34;;;;;;;9.13;2.65;;;14.10;86.90;;;;;;6306426;22;20006;-77
2023/01/16 00:11:00;;;;;;;7.35;2.17;;;14.10;87.00;;;;;;6306621;22;20000;-78
2023/01/16 00:13:26;;;;;;;12.40;2.38;;;14.10;86.90;;;;;;6306723;22;20013;-78
2023/01/16 00:15:52;;;;;;;6.60;1.83;;;14.10;86.90;;;;;;6306861;22;19999;-77
2023/01/16 00:18:18;;;;;;;5.80;2.20;;;14.10;87.10;;;;;;6306122;22;20067;-77
2023/01/16 00:20:46;;;;;;;7.10;2.20;;;14.10;87.00;;;;;;6306192;22;20329;-78
2023/01/16 00:23:11;;;;;;;6.75;2.47;;;14.10;87.20;;;;;;6306528;22;20125;-75
2023/01/16 00:25:41;;;;;;;8.95;2.35;;;14.10;87.00;;;;;;6306337;22;20034;-78
2023/01/16 00:28:08;;;;;;;9.50;2.20;;;14.10;87.20;;;;;;6306377;22;19995;-77
2023/01/16 00:30:34;;;;;;;9.07;2.47;;;14.10;87.40;;;;;;6306643;22;20027;-76
2023/01/16 00:32:59;;;;;;;7.65;2.40;;;14.10;87.30;;;;;;6306396;22;20007;-77
2023/01/16 00:35:26;;;;;;;9.82;2.63;;;14.10;87.50;;;;;;6306144;22;20065;-77
2023/01/16 00:37:52;;;;;;;14.95;2.30;;;14.10;87.80;;;;;;6306456;22;20392;-78
2023/01/16 00:40:19;;;;;;;9.95;2.20;;;14.10;88.00;;;;;;6306534;22;19999;-77
2023/01/16 00:42:44;;;;;;;8.65;2.20;;;14.10;88.20;;;;;;6308135;22;20093;-76
2023/01/16 00:45:10;;;;;;;5.72;2.20;;;14.10;88.20;;;;;;6309814;22;19995;-77
2023/01/16 00:47:36;;;;;;;5.75;1.92;;;14.10;88.20;;;;;;6308967;22;20007;-77
2023/01/16 00:50:02;;;;;;;7.68;2.10;;;14.10;88.40;;;;;;6306662;22;20062;-78
2023/01/16 00:52:28;;;;;;;7.15;2.13;;;14.10;88.40;;;;;;6306195;22;20065;-77
2023/01/16 00:54:54;;;;;;;12.65;2.40;;;14.00;88.40;;;;;;6305987;22;20015;-78
2023/01/16 00:57:19;;;;;;;7.45;2.50;;;14.00;88.50;;;;;;6306218;22;19995;-77
2023/01/16 00:59:45;;;;;;;9.35;2.47;;;14.00;88.70;;;;;;6306552;22;20078;-77
2023/01/16 01:02:10;;;;;;;8.48;2.28;;;14.00;88.90;;;;;;6306366;22;20423;-72
2023/01/16 01:04:36;;;;;;;5.05;1.80;;;14.00;89.00;;;;;;6306362;22;20007;-77
2023/01/16 01:07:02;;;;;;;8.80;1.90;;;14.00;88.80;;;;;;6303843;22;20074;-75
2023/01/16 01:09:28;;;;;;;6.53;2.03;;;14.00;89.10;;;;;;6306140;22;20316;-76
2023/01/16 01:11:56;;;;;;;7.00;1.92;;;14.00;88.90;;;;;;6278786;22;20405;-78
2023/01/16 01:14:22;;;;;;;6.18;1.92;;;14.00;89.20;;;;;;6304497;22;20056;-76
2023/01/16 01:16:48;;;;;;;6.00;1.95;;;14.00;89.00;;;;;;6307880;22;20022;-77
2023/01/16 01:19:14;;;;;;;6.53;2.10;;;14.00;89.20;;;;;;6308012;22;20007;-77
2023/01/16 01:21:40;;;;;;;7.72;2.10;;;14.00;89.20;;;;;;6307831;22;20056;-75
2023/01/16 01:24:06;;;;;;;7.53;2.03;;;14.00;89.10;;;;;;6307820;22;20329;-76
2023/01/16 01:26:31;;;;;;;6.55;2.10;;;14.00;89.10;;;;;;6307890;22;19995;-77
2023/01/16 01:28:57;;;;;;;5.90;1.77;;;14.00;89.30;;;;;;6307766;22;20140;-77
2023/01/16 01:31:23;;;;;;;10.68;2.38;;;14.00;89.30;;;;;;6307975;22;20000;-77
2023/01/16 01:33:49;;;;;;;6.57;2.15;;;14.00;89.20;;;;;;6307704;22;20007;-77
2023/01/16 01:36:14;;;;;;;5.55;1.90;;;14.00;89.30;;;;;;6308146;22;20022;-77
2023/01/16 01:38:40;;;;;;;9.10;1.90;;;14.00;89.40;;;;;;6307558;22;20360;-77
2023/01/16 01:41:06;;;;;;;6.72;1.92;;;14.00;89.60;;;;;;6307866;22;20007;-77
2023/01/16 01:43:43;;;;;;;10.68;2.42;;;14.00;89.50;;;;;;6307860;22;20003;-77
2023/01/16 01:46:39;;;;;;;9.27;2.13;;;14.00;89.60;;;;;;6307643;22;20060;-77
2023/01/16 01:49:18;;;;;;;9.20;2.38;;;14.00;89.70;;;;;;6307775;22;19999;-77
2023/01/16 01:51:45;;;;;;;6.57;2.00;;;14.00;88.80;;;;;;6280310;22;20113;-77
2023/01/16 01:54:19;;;;;;;4.75;2.00;;;14.00;89.90;;;;;;6307758;22;20333;-77
2023/01/16 01:57:21;;;;;;;10.05;2.05;;;14.00;88.90;;;;;;6307746;22;20026;-77
2023/01/16 02:00:11;;;;;;;6.70;2.15;;;14.00;88.90;;;;;;6307579;22;20009;-77
2023/01/16 02:02:44;;;;;;;6.88;2.20;;;14.00;89.40;;;;;;6306517;22;20444;-77
2023/01/16 02:05:12;;;;;;;9.48;2.42;;;14.00;88.80;;;;;;6307558;22;20482;-76
2023/01/16 02:07:38;;;;;;;9.73;2.30;;;14.00;89.50;;;;;;6307675;22;20004;-76
2023/01/16 02:10:37;;;;;;;9.98;2.38;;;14.10;89.50;;;;;;6308098;22;20092;-78
2023/01/16 02:13:03;;;;;;;10.50;3.05;;;14.00;88.80;;;;;;6307622;22;20027;-77
2023/01/16 02:15:30;;;;;;;8.80;2.40;;;14.00;89.30;;;;;;6307307;22;20008;-78
2023/01/16 02:20:57;;;;;;;11.02;3.05;;;14.10;89.20;;;;;;6307554;22;20529;-77
2023/01/16 02:24:00;;;;;;;10.18;2.50;;;14.10;89.10;;;;;;6307607;22;20140;-76
2023/01/16 02:26:38;;;;;;;12.82;3.25;;;14.10;89.30;;;;;;6307072;22;20003;-77
2023/01/16 02:29:03;;;;;;;14.55;2.95;;;14.10;89.40;;;;;;6307303;22;20008;-76
2023/01/16 02:31:50;;;;;;;12.38;3.10;;;14.10;90.00;;;;;;6307339;22;20452;-76
2023/01/16 02:34:37;;;;;;;11.57;2.58;;;14.10;89.70;;;;;;6307499;22;20341;-77
2023/01/16 02:37:29;;;;;;;12.43;2.65;;;14.00;89.90;;;;;;6307635;22;20079;-76
2023/01/16 02:40:14;;;;;;;10.88;2.92;;;13.90;90.10;;;;;;6307245;22;20018;-76
2023/01/16 02:42:47;;;;;;;10.88;2.97;;;13.90;90.10;;;;;;6307449;22;20086;-76
2023/01/16 02:45:38;;;;;;;13.85;3.65;;;13.90;90.50;;;;;;6307238;22;20341;-76
2023/01/16 02:48:11;;;;;;;13.73;2.80;;;13.90;90.30;;;;;;6307378;22;20034;-77
2023/01/16 02:51:18;;;;;;;10.63;3.20;;;13.90;90.70;;;;;;6307492;22;20023;-76
2023/01/16 02:54:12;;;;;;;9.82;2.70;;;13.90;90.70;;;;;;6306122;22;20027;-77
2023/01/16 02:59:32;;;;;;;10.85;2.83;;;13.90;90.70;;;;;;6244308;22;20229;-76
2023/01/16 03:01:58;;;;;;;9.02;2.60;;;13.80;90.60;;;;;;6307659;22;20006;-75
2023/01/16 03:04:36;;;;;;;8.70;2.85;;;13.80;90.80;;;;;;6307047;22;20011;-76
2023/01/16 03:07:55;;;;;;;10.82;2.92;;;13.80;90.80;;;;;;6307588;22;20000;-76
2023/01/16 03:10:55;;;;;;;13.73;3.83;;;13.70;90.80;;;;;;6182581;23;20009;-77
2023/01/16 03:13:36;;;;;;;10.77;2.70;;;13.70;90.90;;;;;;6307241;22;20066;-77
2023/01/16 03:16:32;;;;;;;12.00;2.90;;;13.70;91.00;;;;;;6307200;22;20433;-77
2023/01/16 03:19:20;;;;;;;11.15;3.70;;;13.60;91.00;;;;;;6307079;22;19999;-78
2023/01/16 03:22:21;;;;;;;11.90;3.22;;;13.60;91.00;;;;;;6307046;22;20035;-77
2023/01/16 03:25:02;;;;;;;12.13;3.33;;;13.60;91.20;;;;;;6241519;22;20041;-77
2023/01/16 03:27:50;;;;;;;10.55;3.33;;;13.60;91.20;;;;;;6306837;22;20003;-76
2023/01/16 03:30:36;;;;;;;12.55;3.53;;;13.50;91.30;;;;;;6279214;22;20496;-77
2023/01/16 03:33:08;;;;;;;15.30;4.30;;;13.60;91.40;;;;;;6305328;22;20007;-76
2023/01/16 03:35:46;;;;;;;11.93;3.60;;;13.50;91.50;;;;;;6307100;22;20086;-77
2023/01/16 03:38:15;;;;;;;13.65;3.63;;;13.50;91.50;;;;;;6306698;22;20042;-77
2023/01/16 03:40:45;;;;;;;12.98;3.60;;;13.50;91.60;;;;;;6306733;22;20003;-77
2023/01/16 03:43:13;;;;;;;14.30;4.07;;;13.50;91.60;;;;;;6306512;22;20425;-77
2023/01/16 03:45:49;;;;;;;13.75;4.18;;;13.50;91.70;;;;;;6307031;22;20028;-77
2023/01/16 03:48:24;;;;;;;13.20;3.80;;;13.40;91.70;;;;;;6306816;22;20006;-77
2023/01/16 03:51:25;;;;;;;15.15;3.22;;;13.40;91.60;;;;;;6307117;22;20026;-76
2023/01/16 03:54:11;;;;;;;14.85;3.80;;;13.40;91.60;;;;;;6238303;22;20330;-77
2023/01/16 03:56:45;;;;;;;16.27;3.55;;;13.40;91.70;;;;;;6306703;22;19995;-77
2023/01/16 03:59:10;;;;;;;;;;;13.40;91.70;;;;;;6307464;22;20078;-77
2023/01/16 04:01:36;;;;;;;15.77;3.60;;;13.40;91.70;;;;;;6311741;22;19922;-75
2023/01/16 04:04:09;;;;;;;12.80;3.42;;;13.40;91.50;;;;;;6332757;22;20003;-75
2023/01/16 04:06:37;;;;;;;19.15;4.80;;;13.40;91.40;;;;;;6333588;22;20039;-77
2023/01/16 04:09:08;;;;;;;14.85;3.22;;;13.40;91.40;;;;;;6308381;22;20448;-77
2023/01/16 04:11:36;;;;;;;16.65;3.42;;;13.40;91.30;;;;;;6307292;22;19999;-77
2023/01/16 04:14:05;;;;;;;13.23;2.65;;;13.50;91.20;;;;;;6306756;22;20068;-77
2023/01/16 04:16:32;;;;;;;18.02;3.35;;;13.40;91.10;;;;;;6306426;22;19999;-76
2023/01/16 04:18:59;;;;;;;12.18;2.83;;;13.50;91.00;;;;;;6306708;22;20006;-76
2023/01/16 04:21:31;;;;;;;12.75;3.03;;;13.40;90.90;;;;;;6306693;22;20337;-77
2023/01/16 04:23:59;;;;;;;13.57;3.47;;;13.40;90.80;;;;;;6306864;22;20052;-77
2023/01/16 04:26:25;;;;;;;16.55;3.22;;;13.40;90.80;;;;;;6306834;22;20390;-75
2023/01/16 04:28:54;;;;;;;15.95;3.15;;;13.40;90.70;;;;;;6304742;22;20325;-75
2023/01/16 04:31:24;;;;;;;14.05;2.97;;;13.40;90.60;;;;;;6306468;22;20372;-77
2023/01/16 04:33:50;;;;;;;17.15;4.68;;;13.40;90.60;;;;;;6306713;22;20022;-76
2023/01/16 04:36:16;;;;;;;15.43;3.40;;;13.30;90.50;;;;;;6306553;22;19999;-77
2023/01/16 04:38:42;;;;;;;12.80;2.63;;;13.40;90.50;;;;;;6304073;22;20030;-78
2023/01/16 04:41:08;;;;;;;13.77;2.90;;;13.40;90.40;;;;;;6306584;22;19999;-76
2023/01/16 04:43:33;;;;;;;14.77;3.10;;;13.30;90.40;;;;;;6306382;22;20002;-76
2023/01/16 04:45:59;;;;;;;16.13;3.35;;;13.40;90.40;;;;;;6306142;22;20045;-77
2023/01/16 04:48:25;;;;;;;14.38;3.50;;;13.40;90.30;;;;;;6306146;22;20034;-76
2023/01/16 04:50:50;;;;;;;19.25;4.78;;;13.40;90.20;;;;;;6307148;22;20010;-76
2023/01/16 04:53:16;;;;;;;14.82;3.22;;;13.40;90.30;;;;;;6308304;22;20002;-77
2023/01/16 04:55:42;;;;;;;15.80;2.92;;;13.40;90.20;;;;;;6308270;22;20061;-77
2023/01/16 04:58:07;;;;;;;17.75;3.45;;;13.50;90.10;;;;;;6308517;22;20011;-76
2023/01/16 05:00:33;;;;;;;17.75;4.57;;;13.50;90.10;;;;;;6308153;22;20329;-76
2023/01/16 05:02:59;;;;;;;16.20;3.72;;;13.50;90.10;;;;;;6308275;22;20003;-77
2023/01/16 05:05:25;;;;;;;16.77;3.35;;;13.50;90.00;;;;;;6308928;22;19999;-76
2023/01/16 05:08:15;;;;;;;25.27;4.03;;;13.50;89.70;;;;;;6308903;22;20023;-76
2023/01/16 05:10:37;;;;;;;19.52;3.97;;;13.50;89.60;;;;;;6308406;22;20014;-76
2023/01/16 05:13:03;;;;;;;16.02;3.88;;;13.50;89.50;;;;;;6308496;22;19999;-77
2023/01/16 05:15:29;;;;;;;21.02;3.90;;;13.50;89.20;;;;;;6307947;22;20011;-77
2023/01/16 05:17:55;;;;;;;17.55;3.08;;;13.50;89.10;;;;;;6308256;22;20044;-77
2023/01/16 05:20:21;;;;;;;13.73;2.83;;;13.50;89.00;;;;;;6308502;22;20160;-77
2023/01/16 05:22:47;;;;;;;19.23;3.55;;;13.50;88.80;;;;;;6308251;22;20332;-75
2023/01/16 05:25:13;;;;;;;20.70;4.60;;;13.50;88.70;;;;;;6307739;22;20417;-77
2023/01/16 05:27:39;;;;;;;18.30;2.90;;;13.50;88.50;;;;;;6307756;22;19999;-77
2023/01/16 05:30:05;;;;;;;17.35;3.50;;;13.50;88.30;;;;;;6307674;22;20433;-76
2023/01/16 05:32:31;;;;;;;13.55;2.92;;;13.50;88.00;;;;;;6307999;22;20003;-78
2023/01/16 05:34:56;;;;;;;17.05;3.80;;;13.50;87.90;;;;;;6280221;22;20019;-77
2023/01/16 05:37:22;;;;;;;15.18;3.83;;;13.50;87.60;;;;;;6307775;22;20082;-76
2023/01/16 05:39:47;;;;;;;20.00;3.03;;;13.60;87.50;;;;;;6307750;22;20078;-75
2023/01/16 05:42:24;;;;;;;17.77;3.80;;;13.50;87.00;;;;;;6307719;22;19995;-77
2023/01/16 05:44:51;;;;;;;12.85;2.85;;;13.50;86.50;;;;;;6307850;22;20003;-78
2023/01/16 05:47:17;;;;;;;14.45;3.03;;;13.50;86.80;;;;;;6307850;22;20006;-76
2023/01/16 05:49:43;;;;;;;15.45;4.30;;;13.50;86.70;;;;;;6308008;22;20006;-76
2023/01/16 05:52:09;;;;;;;19.10;3.47;;;13.50;86.80;;;;;;6307468;22;19999;-76
2023/01/16 05:54:35;;;;;;;18.48;3.28;;;13.50;86.70;;;;;;6307906;22;20008;-78
2023/01/16 05:57:00;;;;;;;15.80;3.55;;;13.50;86.70;;;;;;6308147;22;19995;-79
2023/01/16 05:59:26;;;;;;;13.52;2.90;;;13.40;86.60;;;;;;6307991;22;20003;-76
2023/01/16 06:01:51;;;;;;;14.73;2.90;;;13.40;86.60;;;;;;6307840;22;20003;-76
2023/01/16 06:04:19;;;;;;;19.42;4.60;;;13.40;86.40;;;;;;6308208;22;20026;-77
2023/01/16 06:06:47;;;;;;;16.63;4.00;;;13.50;86.50;;;;;;6307961;22;20078;-76
2023/01/16 06:09:13;;;;;;;15.40;3.40;;;13.40;86.20;;;;;;6307845;22;20372;-77
2023/01/16 06:11:39;;;;;;;12.48;3.63;;;13.40;85.70;;;;;;6307802;22;19999;-77
2023/01/16 06:14:05;;;;;;;19.17;3.83;;;13.40;85.30;;;;;;6307524;22;20007;-76
2023/01/16 06:16:34;;;;;;;19.88;4.03;;;13.40;85.10;;;;;;6307862;22;20074;-77
2023/01/16 06:19:01;;;;;;;21.73;4.18;;;13.40;84.70;;;;;;6307709;22;20007;-77
2023/01/16 06:21:27;;;;;;;11.80;2.67;;;13.40;84.50;;;;;;6307605;22;20010;-76
2023/01/16 06:23:52;;;;;;;15.40;3.65;;;13.40;84.20;;;;;;6307639;22;20015;-75
2023/01/16 06:26:19;;;;;;;16.98;3.35;;;13.40;84.00;;;;;;6307806;22;20086;-76
2023/01/16 06:28:45;;;;;;;17.48;4.03;;;13.40;83.80;;;;;;6307530;22;20009;-77
2023/01/16 06:31:11;;;;;;;16.65;3.58;;;13.40;83.30;;;;;;6307349;22;19996;-76
2023/01/16 06:33:37;;;;;;;17.55;3.08;;;13.40;82.80;;;;;;6307625;22;20003;-77
2023/01/16 06:36:03;;;;;;;21.20;3.50;;;13.40;82.80;;;;;;6307107;22;20075;-77
2023/01/16 06:38:29;;;;;;;18.27;3.30;;;13.40;82.50;;;;;;6279730;22;20015;-78
2023/01/16 06:40:56;;;;;;;22.75;3.38;;;13.40;82.10;;;;;;6308139;22;20077;-76
2023/01/16 06:43:28;;;;;;;21.58;4.47;;;13.40;82.20;;;;;;6307718;22;19999;-76
2023/01/16 06:45:55;;;;;;;21.13;4.30;;;13.50;82.50;;;;;;6307324;22;20031;-77
2023/01/16 06:48:21;;;;;;;20.75;3.60;;;13.40;82.30;;;;;;6307153;22;19995;-78
2023/01/16 06:50:47;;;;;;;19.15;3.92;;;13.50;82.40;;;;;;6306826;22;20011;-78
2023/01/16 06:53:13;;;;;;;19.30;4.13;;;13.50;81.90;;;;;;6307065;22;19996;-77
2023/01/16 06:55:40;;;;;;;19.00;3.30;;;13.50;81.70;;;;;;6306765;22;20012;-76
2023/01/16 06:58:05;;;;;;;20.30;3.67;;;13.40;81.80;;;;;;6307422;22;20366;-77
2023/01/16 07:00:31;;;;;;;23.20;4.45;;;13.40;81.70;;;;;;6307501;22;20007;-77
2023/01/16 07:02:57;;;;;;;23.50;5.25;;;13.40;81.70;;;;;;6309424;22;20034;-77
2023/01/16 07:05:25;;;;;;;22.05;4.32;;;13.40;81.40;;;;;;6311943;22;20003;-76
2023/01/16 07:07:51;;;;;;;20.17;3.63;;;13.40;81.40;;;;;;6322984;22;20003;-77
2023/01/16 07:10:20;;;;;;;18.33;4.28;;;13.40;81.30;;;;;;6330378;22;20352;-77
2023/01/16 07:12:46;;;;;;;28.65;5.18;;;13.40;81.40;;;;;;6314212;22;19996;-77
2023/01/16 07:23:30;;;;;;;17.08;3.20;;;13.40;80.40;;;;;;6307386;22;20014;-78
2023/01/16 07:25:59;;;;;;;25.58;4.85;;;13.40;80.20;;;;;;6307278;22;20015;-77
2023/01/16 07:28:25;;;;;;;17.73;3.50;;;13.40;80.20;;;;;;6306924;22;20101;-76
2023/01/16 07:30:51;;;;;;;18.17;3.88;;;13.30;80.20;;;;;;6307004;22;20003;-77
2023/01/16 07:33:16;;;;;;;17.40;3.05;;;13.30;79.90;;;;;;6307057;22;20413;-78
2023/01/16 07:35:43;;;;;;;22.00;3.47;;;13.40;79.90;;;;;;6307005;22;20027;-71
2023/01/16 07:38:09;;;;;;;17.83;2.83;;;13.40;79.70;;;;;;6306732;22;20119;-77
2023/01/16 07:40:34;;;;;;;19.65;3.42;;;13.40;79.90;;;;;;6306890;22;20082;-77
2023/01/16 07:43:00;;;;;;;16.45;3.33;;;13.40;79.80;;;;;;6306957;22;20006;-77
2023/01/16 07:45:26;;;;;;;19.92;4.55;;;13.40;79.50;;;;;;6306839;22;20433;-76
2023/01/16 07:47:51;;;;;;;24.52;4.07;;;13.50;79.20;;;;;;6306692;22;20386;-77
2023/01/16 07:50:17;;;;;;;21.70;3.95;;;13.50;79.10;;;;;;6306847;22;20015;-78
2023/01/16 07:52:44;;;;;;;19.92;3.83;;;13.60;78.90;;;;;;6306546;22;20033;-77
2023/01/16 07:55:09;;;;;;;17.73;4.10;;;13.70;78.70;;;;;;6306456;22;20423;-77
2023/01/16 07:57:36;;;;;;;17.33;3.60;;;13.70;78.20;;;;;;6306439;22;20034;-79
2023/01/16 08:00:04;;;;;;;25.88;4.40;;;13.70;78.10;;;;;;6305099;22;20033;-78
2023/01/16 08:02:30;;;;;;;17.75;3.15;;;13.80;78.00;;;;;;6306668;22;20026;-77
2023/01/16 08:04:55;;;;;;;21.15;3.95;;;13.80;77.80;;;;;;6306873;22;20053;-77
2023/01/16 08:07:21;;;;;;;20.27;3.92;;;13.80;77.60;;;;;;6306754;22;19999;-79
2023/01/16 08:09:47;;;;;;;24.10;4.10;;;13.80;77.30;;;;;;6306939;22;20499;-76
2023/01/16 08:12:12;;;;;;;21.13;3.63;;;13.90;77.40;;;;;;6306520;22;19995;-78
2023/01/16 08:14:39;;;;;;;24.15;3.10;;;13.90;77.20;;;;;;6306788;22;20017;-78
2023/01/16 08:17:05;;;;;;;19.40;3.75;;;13.90;77.00;;;;;;6307130;22;20005;-77
2023/01/16 08:19:30;;;;;;;17.45;3.25;;;13.90;77.30;;;;;;6306788;22;20387;-77
2023/01/16 08:21:56;;;;;;;23.20;3.33;;;14.00;76.50;;;;;;6307406;22;20022;-78
2023/01/16 08:24:23;;;;;;;20.35;3.85;;;14.00;76.40;;;;;;6306390;22;20061;-78
2023/01/16 08:26:49;;;;;;;17.88;3.50;;;14.00;76.10;;;;;;6306191;22;20000;-78
2023/01/16 08:29:15;;;;;;;26.73;4.60;;;14.00;76.10;;;;;;6306700;22;20487;-77
2023/01/16 08:31:40;;;;;;;16.30;3.15;;;14.00;75.50;;;;;;6279324;22;20431;-76
2023/01/16 08:34:06;;;;;;;18.45;3.00;;;14.00;75.30;;;;;;6306250;22;20011;-78
2023/01/16 08:36:32;;;;;;;23.05;4.72;;;14.10;75.30;;;;;;6306764;22;20301;-78
2023/01/16 08:38:58;;;;;;;16.67;3.65;;;14.10;75.30;;;;;;6279017;22;20348;-78
2023/01/16 08:52:44;;;;;;;16.95;3.55;;;14.80;74.30;;;;;;6306904;22;20042;-79
2023/01/16 08:55:10;;;;;;;16.55;3.38;;;14.90;73.90;;;;;;6305173;22;20341;-78
2023/01/16 08:57:36;;;;;;;19.55;3.67;;;15.00;73.60;;;;;;6306966;22;20010;-77
2023/01/16 09:00:04;;;;;;;15.02;3.70;;;15.10;73.30;;;;;;6307041;22;20640;-77
2023/01/16 09:02:31;;;;;;;17.90;3.45;;;15.20;73.10;;;;;;6306584;22;19999;-77
2023/01/16 09:04:57;;;;;;;25.73;4.13;;;15.30;72.80;;;;;;6306448;22;20004;-78
2023/01/16 09:07:23;;;;;;;18.13;4.40;;;15.40;72.50;;;;;;6307117;22;20098;-78
2023/01/16 09:09:48;;;;;;;16.17;2.97;;;15.50;71.80;;;;;;6307022;22;20007;-78
2023/01/16 09:14:58;;;;;;;;;;;15.50;71.60;;;;;;6307605;22;20467;-78
2023/01/16 09:17:25;;;;;;;23.95;4.25;;;15.50;70.60;;;;;;6279600;22;19898;-78
2023/01/16 09:19:52;;;;;;;15.88;3.10;;;15.50;70.80;;;;;;6307074;22;20030;-78
2023/01/16 09:22:18;;;;;;;17.00;2.90;;;15.40;70.80;;;;;;6306744;22;19993;-78
2023/01/16 09:24:44;;;;;;;14.68;2.78;;;15.40;70.20;;;;;;6306600;22;20004;-77
2023/01/16 09:27:10;;;;;;;12.98;2.88;;;15.40;69.80;;;;;;6306607;22;20481;-78
2023/01/16 09:29:36;;;;;;;15.68;2.47;;;15.40;69.60;;;;;;6306467;22;20038;-78
2023/01/16 09:32:07;;;;;;;11.38;2.63;;;15.30;68.40;;;;;;6306789;22;20079;-77
2023/01/16 09:34:33;;;;;;;19.70;3.35;;;15.30;68.40;;;;;;6307052;22;20322;-76
2023/01/16 09:36:59;;;;;;;12.95;2.75;;;15.30;67.60;;;;;;6307629;22;20121;-77
2023/01/16 09:39:25;;;;;;;10.68;2.45;;;15.30;67.40;;;;;;6308810;22;20003;-77
2023/01/16 09:44:52;;;;;;;13.82;2.35;;;15.40;65.90;;;;;;6308290;22;20464;-76
2023/01/16 09:47:22;;;;;;;18.60;2.90;;;15.40;65.80;;;;;;6307716;22;20066;-77
2023/01/16 09:49:51;;;;;;;12.00;2.10;;;15.40;66.30;;;;;;6307604;22;20467;-77
2023/01/16 10:00:49;;;;;;;15.50;2.83;;;15.20;66.60;;;;;;6307688;22;20046;-78
2023/01/16 10:03:15;;;;;;;15.95;2.63;;;15.10;66.80;;;;;;6308194;22;20103;-77
2023/01/16 10:05:52;;;;;;;14.63;2.30;;;15.10;66.80;;;;;;6307766;22;20011;-78
2023/01/16 10:08:57;;;;;;;20.45;3.00;;;15.10;67.60;;;;;;6307724;22;20684;-77
2023/01/16 10:11:32;;;;;;;14.43;2.42;;;15.10;67.50;;;;;;6308005;22;20292;-78
2023/01/16 10:14:06;;;;;;;19.60;3.05;;;15.10;67.20;;;;;;6307713;22;20086;-79
2023/01/16 10:16:46;;;;;;;18.70;3.10;;;15.10;66.70;;;;;;6307404;22;20117;-76
2023/01/16 10:19:32;;;;;;;14.25;2.40;;;15.20;67.30;;;;;;6307563;22;20014;-78
2023/01/16 10:22:24;;;;;;;11.73;2.10;;;15.30;66.20;;;;;;6307282;22;20026;-76
2023/01/16 10:24:55;;;;;;;15.77;3.25;;;15.40;66.30;;;;;;6290645;22;20011;-77
2023/01/16 10:27:33;;;;;;;15.77;3.13;;;15.50;65.10;;;;;;6307564;22;20086;-75
2023/01/16 10:30:13;;;;;;;19.17;2.65;;;15.50;65.10;;;;;;6279943;22;20011;-76
2023/01/16 10:32:47;;;;;;;17.77;2.75;;;15.50;65.10;;;;;;6307942;22;19999;-78
2023/01/16 10:35:18;;;;;;;14.25;2.45;;;15.50;65.20;;;;;;6307207;22;20044;-77
2023/01/16 10:37:45;;;;;;;17.98;3.05;;;15.50;64.70;;;;;;6307083;22;20012;-79
2023/01/16 10:40:25;;;;;;;14.32;2.53;;;15.50;64.70;;;;;;6307248;22;20034;-77
2023/01/16 10:51:46;;;;;;;14.45;2.33;;;15.50;63.20;;;;;;6307085;22;20069;-76
2023/01/16 10:54:12;;;;;;;10.80;2.08;;;15.40;63.30;;;;;;6306635;22;20015;-77
2023/01/16 10:56:41;;;;;;;15.35;2.83;;;15.40;62.70;;;;;;6306466;22;19995;-78
2023/01/16 10:59:10;;;;;;;14.15;2.75;;;15.40;62.80;;;;;;6306417;22;20010;-78
2023/01/16 11:01:37;;;;;;;16.48;2.88;;;15.40;62.50;;;;;;6306544;22;20039;-77
2023/01/16 11:04:09;;;;;;;12.73;2.58;;;15.40;62.20;;;;;;6279101;22;20094;-76
2023/01/16 11:06:37;;;;;;;11.18;2.25;;;15.40;62.10;;;;;;6306571;22;20007;-77
2023/01/16 11:09:08;;;;;;;13.80;2.17;;;15.40;62.40;;;;;;6306783;22;20011;-77
2023/01/16 11:20:19;;;;;;;11.15;2.25;;;15.30;62.80;;;;;;6306412;22;20084;-77
2023/01/16 11:22:50;;;;;;;15.43;2.60;;;15.40;63.30;;;;;;6306883;22;20074;-76
2023/01/16 11:25:18;;;;;;;17.08;3.00;;;15.40;63.50;;;;;;6306394;22;20000;-77
2023/01/16 11:27:46;;;;;;;10.13;2.83;;;15.30;63.80;;;;;;6279104;22;20052;-78
2023/01/16 11:30:22;;;;;;;10.38;2.25;;;15.40;64.40;;;;;;6306051;22;20415;-77
2023/01/16 11:32:49;;;;;;;15.80;2.80;;;15.40;65.20;;;;;;6305975;22;20007;-78
2023/01/16 11:35:17;;;;;;;10.27;1.95;;;15.40;64.80;;;;;;6306372;22;20049;-78
2023/01/16 11:37:45;;;;;;;11.75;2.28;;;15.30;64.50;;;;;;6306107;22;20015;-77
2023/01/16 11:40:21;;;;;;;9.75;1.88;;;15.30;64.40;;;;;;6306301;22;20057;-77
2023/01/16 11:46:05;;;;;;;19.27;2.30;;;15.20;65.00;;;;;;6306948;22;20017;-79
2023/01/16 11:48:54;;;;;;;19.27;2.72;;;15.20;65.40;;;;;;6306391;22;19999;-75
2023/01/16 11:51:23;;;;;;;16.00;2.63;;;15.30;65.70;;;;;;6306319;22;20031;-77
2023/01/16 11:53:50;;;;;;;14.88;2.85;;;15.30;66.00;;;;;;6306571;22;20306;-78
2023/01/16 11:56:34;;;;;;;19.83;3.42;;;15.30;66.30;;;;;;6306265;22;20325;-77
2023/01/16 11:59:18;;;;;;;12.85;2.85;;;15.30;66.40;;;;;;6278805;22;20405;-79
2023/01/16 12:02:17;;;;;;;12.55;2.75;;;15.30;66.90;;;;;;6306755;22;20000;-78
2023/01/16 12:08:20;;;;;;;16.88;2.53;;;15.20;67.00;;;;;;6306072;22;20018;-77
2023/01/16 12:10:52;;;;;;;14.57;2.55;;;15.10;67.50;;;;;;6306200;22;20078;-79
2023/01/16 12:16:23;;;;;;;13.75;2.45;;;15.10;68.10;;;;;;6306405;22;20110;-78
2023/01/16 12:19:01;;;;;;;13.90;2.50;;;15.20;68.50;;;;;;6306235;22;20061;-79
2023/01/16 12:21:27;;;;;;;12.48;2.90;;;15.20;69.00;;;;;;6306382;22;20007;-78
2023/01/16 12:24:03;;;;;;;11.68;2.30;;;15.30;68.70;;;;;;6306056;22;20025;-78
2023/01/16 12:26:37;;;;;;;10.45;1.95;;;15.40;68.40;;;;;;6306156;22;20002;-77
2023/01/16 12:29:23;;;;;;;9.45;2.03;;;15.50;68.20;;;;;;6306133;22;20066;-77
2023/01/16 12:31:50;;;;;;;14.35;2.60;;;15.50;68.10;;;;;;6306190;22;20455;-78
2023/01/16 12:34:37;;;;;;;14.02;2.70;;;15.60;67.60;;;;;;6306276;22;20011;-78
2023/01/16 12:37:21;;;;;;;9.68;2.53;;;15.60;67.90;;;;;;6306118;22;20337;-77
2023/01/16 12:40:05;;;;;;;9.52;2.17;;;15.60;67.90;;;;;;6306643;22;20027;-78
2023/01/16 12:45:47;;;;;;;12.20;2.20;;;15.40;67.80;;;;;;6305986;22;20034;-76
2023/01/16 12:48:23;;;;;;;12.98;2.30;;;15.30;68.10;;;;;;6305898;22;20003;-78
2023/01/16 12:51:05;;;;;;;11.43;2.72;;;15.20;68.20;;;;;;6306332;22;19999;-79
2023/01/16 12:53:52;;;;;;;10.30;2.00;;;15.10;68.50;;;;;;6305961;22;20677;-77
2023/01/16 12:56:20;;;;;;;16.23;2.38;;;15.00;68.90;;;;;;6306553;22;20058;-78
2023/01/16 12:58:51;;;;;;;15.80;3.13;;;14.90;69.00;;;;;;6279080;22;19999;-78
2023/01/16 13:01:21;;;;;;;10.95;3.42;;;14.80;69.40;;;;;;6306286;22;20084;-78
2023/01/16 13:04:00;;;;;;;13.43;3.28;;;14.90;69.60;;;;;;6305925;22;19999;-78
2023/01/16 13:06:46;;;;;;;14.40;2.72;;;15.00;69.70;;;;;;6305687;22;20003;-78
2023/01/16 13:09:23;;;;;;;20.50;2.75;;;15.00;70.10;;;;;;6306042;22;20049;-78
2023/01/16 13:15:00;;;;;;;10.00;2.03;;;14.80;70.70;;;;;;6307927;22;20026;-77
2023/01/16 13:17:42;;;;;;;11.52;2.25;;;14.70;71.10;;;;;;6307927;22;20041;-77
2023/01/16 13:20:11;;;;;;;8.98;1.55;;;14.60;71.10;;;;;;6308302;22;20002;-76
2023/01/16 13:22:51;;;;;;;8.35;1.98;;;14.50;70.80;;;;;;6307795;22;19999;-78
2023/01/16 13:25:35;;;;;;;9.45;2.13;;;14.50;70.70;;;;;;6280412;22;20387;-77
2023/01/16 13:28:07;;;;;;;9.13;1.58;;;14.50;71.10;;;;;;6308392;22;20382;-77
2023/01/16 13:30:33;;;;;;;7.90;1.40;;;14.40;71.30;;;;;;6307710;22;20097;-77
2023/01/16 13:33:07;;;;;;;8.05;1.83;;;14.40;71.70;;;;;;6307778;22;20003;-77
2023/01/16 13:35:56;;;;;;;9.48;2.00;;;14.30;72.00;;;;;;6307961;22;20011;-78
2023/01/16 13:38:35;;;;;;;7.30;1.60;;;14.30;72.10;;;;;;6307483;22;20060;-78
2023/01/16 13:41:14;;;;;;;13.80;1.90;;;14.30;72.20;;;;;;6307885;22;20486;-77
2023/01/16 13:47:06;;;;;;;9.57;2.00;;;14.30;72.40;;;;;;6308231;22;20563;-78
2023/01/16 13:49:32;;;;;;;7.07;2.05;;;14.40;72.90;;;;;;6308141;22;20279;-79
2023/01/16 13:52:01;;;;;;;12.38;2.47;;;14.40;72.90;;;;;;6280437;22;20030;-79
2023/01/16 13:54:36;;;;;;;10.93;2.28;;;14.50;73.20;;;;;;6281156;22;20022;-79
2023/01/16 13:57:15;;;;;;;11.80;2.10;;;14.50;73.40;;;;;;6308139;22;20045;-77
2023/01/16 13:59:48;;;;;;;11.35;2.90;;;14.50;73.10;;;;;;6280463;22;20003;-78
2023/01/16 14:02:35;;;;;;;12.20;2.60;;;14.60;73.30;;;;;;6307740;22;20005;-77
2023/01/16 14:05:06;;;;;;;13.77;3.00;;;14.50;73.30;;;;;;6307726;22;20464;-77
2023/01/16 14:11:14;;;;;;;9.05;2.35;;;14.50;73.60;;;;;;6307853;22;20098;-77
2023/01/16 14:13:40;;;;;;;9.15;2.10;;;14.40;74.00;;;;;;6272422;22;20061;-78
2023/01/16 14:18:56;;;;;;;12.20;2.70;;;14.50;74.20;;;;;;6307374;22;20103;-78
2023/01/16 14:21:24;;;;;;;9.65;2.53;;;14.50;74.60;;;;;;6307810;22;20437;-78
2023/01/16 14:24:00;;;;;;;14.23;2.47;;;14.40;74.50;;;;;;6306810;22;19999;-78